Terminal Aerodrome Forecast
Issued by NWS

Home | Current Version | Previous Version | Text Only | Print | Product List | Glossary On
Versions: 1 2 3 4 5 6 7 8 9 10 11 12 13 14 15 16
000
FTUS43 KAPX 210500
TAFPLN
TAF
KPLN 210520Z 2106/2206 34008KT P6SM OVC015
     FM211200 01011G20KT P6SM SCT015
     FM211600 02009KT P6SM SCT025
     FM220000 VRB03KT P6SM SKC
     FM220500 00000KT P6SM SCT020=

USA.gov is the U.S. government's official web portal to all federal, state and local government web resources and services.